Flight Track Log - Related Links

Times and Time Zones

All times are in EDT time to prevent confusion due to time zone crossing. See the N986DC flight status page for this flight to view local times or setup timezone preferences in your user account.


Time Position Orientation Groundspeed Altitude Reporting Facility
EDT Latitude Longitude Course Direction KTS MPH feet Rate Location/Type
Sun 04:38:51 PM 35.3011 -82.6289 244° Southwest 106 122 7,300  Level Atlanta Center
Sun 04:39:51 PM 35.2806 -82.6497 220° Southwest 106 122 7,700 250 Climbing Atlanta Center
Sun 04:40:51 PM 35.2558 -82.6756 220° Southwest 139 160 7,800  Climbing Atlanta Center
Sun 04:41:51 PM 35.2250 -82.7117 224° Southwest 144 166 7,700 -150 Descending Atlanta Center
Sun 04:42:51 PM 35.1961 -82.7450 223° Southwest 144 166 7,500 -100 Descending Atlanta Center
Sun 04:43:51 PM 35.1672 -82.7736 219° Southwest 149 171 7,500 -50 Level Atlanta Center
Sun 04:44:00 PM 35.2891 -82.9160 244° Southwest  Level Estimated
Sun 04:44:51 PM 35.1342 -82.8019 215° Southwest 149 171 7,400  Level Atlanta Center
Sun 04:45:51 PM 35.1031 -82.8328 219° Southwest 149 171 7,500 100 Climbing Atlanta Center
Sun 04:46:51 PM 35.0806 -82.8661 230° Southwest 143 165 7,600 50 Climbing Atlanta Center
Sun 04:47:51 PM 35.0600 -82.9097 240° Southwest 136 157 7,600 50 Level Atlanta Center
Sun 04:48:51 PM 35.0436 -82.9531 245° Southwest 142 163 7,700  Climbing Atlanta Center
Sun 04:49:51 PM 35.0358 -83.0064 260° West 153 176 7,600 -50 Descending Atlanta Center
Sun 04:50:51 PM 35.0281 -83.0622 260° West 158 182 7,600 50 Level Atlanta Center
Sun 04:51:51 PM 35.0325 -83.1181 276° West 164 189 7,700 -50 Climbing Atlanta Center
Sun 04:52:51 PM 35.0331 -83.1789 271° West 164 189 7,500 -150 Descending Atlanta Center
Sun 04:53:51 PM 35.0250 -83.2347 260° West 164 189 7,400  Descending Atlanta Center
Sun 04:54:51 PM 35.0128 -83.2856 254° West 165 190 7,500 50 Climbing Atlanta Center
Sun 04:55:51 PM 34.9944 -83.3339 245° Southwest 160 184 7,500 50 Level Atlanta Center
Sun 04:56:51 PM 34.9864 -83.3847 259° West 160 184 7,600  Climbing Atlanta Center
Sun 04:57:51 PM 34.9697 -83.4281 245° Southwest 154 177 7,500 -100 Descending Atlanta Center
Sun 04:58:51 PM 34.9450 -83.4839 242° Southwest 159 183 7,400 -50 Descending Atlanta Center
Sun 04:59:51 PM 34.9328 -83.5319 253° West 159 183 7,400  Level Atlanta Center
Sun 05:00:51 PM 34.9247 -83.5903 260° West 166 191 7,400  Level Atlanta Center
Sun 05:01:51 PM 34.9206 -83.6461 265° West 166 191 7,400  Level Atlanta Center
Sun 05:02:51 PM 34.9083 -83.7044 256° West 176 203 7,400 50 Level Atlanta Center
Sun 05:03:51 PM 34.9022 -83.7575 262° West 181 208 7,500 100 Climbing Atlanta Center

Login

Don't have an account? Register now (free) for customized features, flight alerts, and more!